sensor_id;sensor_type;location;lat;lon;timestamp;P1;durP1;ratioP1;P2;durP2;ratioP2
31638;SDS011;18248;51.522;7.020;2022-08-19T00:01:35;8.48;;;5.25;;
31638;SDS011;18248;51.522;7.020;2022-08-19T00:04:35;8.80;;;4.70;;
31638;SDS011;18248;51.522;7.020;2022-08-19T00:07:34;7.53;;;5.03;;
31638;SDS011;18248;51.522;7.020;2022-08-19T00:10:32;7.38;;;4.68;;
31638;SDS011;18248;51.522;7.020;2022-08-19T00:13:31;10.57;;;5.60;;
31638;SDS011;18248;51.522;7.020;2022-08-19T00:16:30;7.38;;;4.40;;
31638;SDS011;18248;51.522;7.020;2022-08-19T00:19:29;13.02;;;5.97;;
31638;SDS011;18248;51.522;7.020;2022-08-19T00:22:28;13.60;;;7.00;;
31638;SDS011;18248;51.522;7.020;2022-08-19T00:25:27;9.13;;;5.70;;
31638;SDS011;18248;51.522;7.020;2022-08-19T00:28:25;7.93;;;4.88;;
31638;SDS011;18248;51.522;7.020;2022-08-19T00:31:24;9.85;;;6.22;;
31638;SDS011;18248;51.522;7.020;2022-08-19T00:34:23;7.85;;;4.80;;
31638;SDS011;18248;51.522;7.020;2022-08-19T00:37:24;9.07;;;5.50;;
31638;SDS011;18248;51.522;7.020;2022-08-19T00:40:24;10.65;;;6.63;;
31638;SDS011;18248;51.522;7.020;2022-08-19T00:43:24;15.48;;;6.03;;
31638;SDS011;18248;51.522;7.020;2022-08-19T00:46:25;10.65;;;6.32;;
31638;SDS011;18248;51.522;7.020;2022-08-19T00:49:37;11.20;;;6.45;;
31638;SDS011;18248;51.522;7.020;2022-08-19T00:52:42;5.90;;;5.10;;
31638;SDS011;18248;51.522;7.020;2022-08-19T00:55:47;9.75;;;5.63;;
31638;SDS011;18248;51.522;7.020;2022-08-19T00:58:48;8.77;;;6.00;;
31638;SDS011;18248;51.522;7.020;2022-08-19T01:01:47;8.57;;;5.65;;
31638;SDS011;18248;51.522;7.020;2022-08-19T01:04:46;6.88;;;5.43;;
31638;SDS011;18248;51.522;7.020;2022-08-19T01:07:44;6.43;;;5.28;;
31638;SDS011;18248;51.522;7.020;2022-08-19T01:10:45;9.30;;;6.22;;
31638;SDS011;18248;51.522;7.020;2022-08-19T01:13:46;8.40;;;5.23;;
31638;SDS011;18248;51.522;7.020;2022-08-19T01:16:46;10.82;;;7.75;;
31638;SDS011;18248;51.522;7.020;2022-08-19T01:19:45;7.65;;;5.50;;
31638;SDS011;18248;51.522;7.020;2022-08-19T01:22:46;9.27;;;6.97;;
31638;SDS011;18248;51.522;7.020;2022-08-19T01:25:48;10.13;;;7.63;;
31638;SDS011;18248;51.522;7.020;2022-08-19T01:28:49;9.68;;;6.40;;
31638;SDS011;18248;51.522;7.020;2022-08-19T01:31:51;7.18;;;5.85;;
31638;SDS011;18248;51.522;7.020;2022-08-19T01:34:51;10.25;;;6.88;;
31638;SDS011;18248;51.522;7.020;2022-08-19T01:37:51;8.32;;;6.25;;
31638;SDS011;18248;51.522;7.020;2022-08-19T01:40:56;7.35;;;5.68;;
31638;SDS011;18248;51.522;7.020;2022-08-19T01:43:55;13.00;;;7.47;;
31638;SDS011;18248;51.522;7.020;2022-08-19T01:46:54;17.42;;;7.93;;
31638;SDS011;18248;51.522;7.020;2022-08-19T01:49:53;9.77;;;7.40;;
31638;SDS011;18248;51.522;7.020;2022-08-19T01:52:52;8.85;;;6.53;;
31638;SDS011;18248;51.522;7.020;2022-08-19T01:55:51;10.23;;;5.82;;
31638;SDS011;18248;51.522;7.020;2022-08-19T01:58:51;11.15;;;7.10;;
31638;SDS011;18248;51.522;7.020;2022-08-19T02:01:53;10.15;;;7.82;;
31638;SDS011;18248;51.522;7.020;2022-08-19T02:04:52;11.38;;;7.57;;
31638;SDS011;18248;51.522;7.020;2022-08-19T02:07:50;13.75;;;8.35;;
31638;SDS011;18248;51.522;7.020;2022-08-19T02:10:50;11.55;;;8.90;;
31638;SDS011;18248;51.522;7.020;2022-08-19T02:13:49;10.07;;;6.45;;
31638;SDS011;18248;51.522;7.020;2022-08-19T02:16:47;9.48;;;7.90;;
31638;SDS011;18248;51.522;7.020;2022-08-19T02:19:46;14.95;;;8.05;;
31638;SDS011;18248;51.522;7.020;2022-08-19T02:22:45;14.27;;;9.43;;
31638;SDS011;18248;51.522;7.020;2022-08-19T02:25:45;15.13;;;9.30;;
31638;SDS011;18248;51.522;7.020;2022-08-19T02:28:44;11.40;;;7.10;;
31638;SDS011;18248;51.522;7.020;2022-08-19T02:31:43;12.25;;;7.00;;
31638;SDS011;18248;51.522;7.020;2022-08-19T02:34:42;12.48;;;7.60;;
31638;SDS011;18248;51.522;7.020;2022-08-19T02:37:42;13.02;;;7.30;;
31638;SDS011;18248;51.522;7.020;2022-08-19T02:41:04;14.25;;;9.05;;
31638;SDS011;18248;51.522;7.020;2022-08-19T02:44:07;7.72;;;6.25;;
31638;SDS011;18248;51.522;7.020;2022-08-19T02:47:06;8.93;;;6.75;;
31638;SDS011;18248;51.522;7.020;2022-08-19T02:50:05;10.75;;;6.47;;
31638;SDS011;18248;51.522;7.020;2022-08-19T02:53:04;10.50;;;6.72;;
31638;SDS011;18248;51.522;7.020;2022-08-19T02:56:07;12.75;;;9.73;;
31638;SDS011;18248;51.522;7.020;2022-08-19T02:59:07;11.63;;;7.78;;
31638;SDS011;18248;51.522;7.020;2022-08-19T03:02:08;12.40;;;8.60;;
31638;SDS011;18248;51.522;7.020;2022-08-19T03:05:07;18.08;;;10.50;;
31638;SDS011;18248;51.522;7.020;2022-08-19T03:08:07;19.83;;;9.73;;
31638;SDS011;18248;51.522;7.020;2022-08-19T03:11:14;12.20;;;8.48;;
31638;SDS011;18248;51.522;7.020;2022-08-19T03:14:26;10.75;;;7.32;;
31638;SDS011;18248;51.522;7.020;2022-08-19T03:17:25;13.75;;;8.60;;
31638;SDS011;18248;51.522;7.020;2022-08-19T03:20:24;11.40;;;7.47;;
31638;SDS011;18248;51.522;7.020;2022-08-19T03:23:23;9.50;;;6.68;;
31638;SDS011;18248;51.522;7.020;2022-08-19T03:26:22;13.25;;;9.80;;
31638;SDS011;18248;51.522;7.020;2022-08-19T03:29:21;12.02;;;7.93;;
31638;SDS011;18248;51.522;7.020;2022-08-19T03:32:19;11.02;;;7.78;;
31638;SDS011;18248;51.522;7.020;2022-08-19T03:35:19;12.18;;;7.25;;
31638;SDS011;18248;51.522;7.020;2022-08-19T03:38:18;7.75;;;6.10;;
31638;SDS011;18248;51.522;7.020;2022-08-19T03:41:18;12.70;;;7.15;;
31638;SDS011;18248;51.522;7.020;2022-08-19T03:44:22;8.63;;;6.38;;
31638;SDS011;18248;51.522;7.020;2022-08-19T03:47:21;11.10;;;6.55;;
31638;SDS011;18248;51.522;7.020;2022-08-19T03:50:19;8.82;;;6.47;;
31638;SDS011;18248;51.522;7.020;2022-08-19T03:53:18;12.52;;;7.97;;
31638;SDS011;18248;51.522;7.020;2022-08-19T03:56:18;12.50;;;8.43;;
31638;SDS011;18248;51.522;7.020;2022-08-19T03:59:25;10.07;;;7.68;;
31638;SDS011;18248;51.522;7.020;2022-08-19T04:02:25;8.05;;;6.75;;
31638;SDS011;18248;51.522;7.020;2022-08-19T04:05:26;9.40;;;7.65;;
31638;SDS011;18248;51.522;7.020;2022-08-19T04:08:26;9.15;;;6.78;;
31638;SDS011;18248;51.522;7.020;2022-08-19T04:11:25;14.32;;;10.38;;
31638;SDS011;18248;51.522;7.020;2022-08-19T04:14:28;15.75;;;7.78;;
31638;SDS011;18248;51.522;7.020;2022-08-19T04:17:31;10.80;;;7.68;;
31638;SDS011;18248;51.522;7.020;2022-08-19T04:20:31;8.27;;;6.63;;
31638;SDS011;18248;51.522;7.020;2022-08-19T04:23:30;9.48;;;7.47;;
31638;SDS011;18248;51.522;7.020;2022-08-19T04:26:30;14.52;;;10.55;;
31638;SDS011;18248;51.522;7.020;2022-08-19T04:29:31;10.80;;;7.47;;
31638;SDS011;18248;51.522;7.020;2022-08-19T04:32:30;14.38;;;8.57;;
31638;SDS011;18248;51.522;7.020;2022-08-19T04:35:34;12.32;;;8.93;;
31638;SDS011;18248;51.522;7.020;2022-08-19T04:38:35;9.75;;;7.47;;
31638;SDS011;18248;51.522;7.020;2022-08-19T04:41:34;18.10;;;10.82;;
31638;SDS011;18248;51.522;7.020;2022-08-19T04:44:52;19.90;;;12.27;;
31638;SDS011;18248;51.522;7.020;2022-08-19T04:47:54;23.40;;;12.75;;
31638;SDS011;18248;51.522;7.020;2022-08-19T04:50:56;15.70;;;11.23;;
31638;SDS011;18248;51.522;7.020;2022-08-19T04:53:56;12.98;;;9.68;;
31638;SDS011;18248;51.522;7.020;2022-08-19T04:56:55;12.38;;;8.27;;
31638;SDS011;18248;51.522;7.020;2022-08-19T04:59:54;11.10;;;8.45;;
31638;SDS011;18248;51.522;7.020;2022-08-19T05:02:54;13.70;;;9.82;;
31638;SDS011;18248;51.522;7.020;2022-08-19T05:05:52;13.55;;;10.07;;
31638;SDS011;18248;51.522;7.020;2022-08-19T05:08:52;15.65;;;10.93;;
31638;SDS011;18248;51.522;7.020;2022-08-19T05:11:50;15.80;;;11.18;;
31638;SDS011;18248;51.522;7.020;2022-08-19T05:14:50;23.58;;;11.25;;
31638;SDS011;18248;51.522;7.020;2022-08-19T05:17:49;14.98;;;10.68;;
31638;SDS011;18248;51.522;7.020;2022-08-19T05:21:11;21.75;;;11.73;;
31638;SDS011;18248;51.522;7.020;2022-08-19T05:24:31;13.57;;;10.13;;
31638;SDS011;18248;51.522;7.020;2022-08-19T05:27:32;14.90;;;9.10;;
31638;SDS011;18248;51.522;7.020;2022-08-19T05:30:31;22.10;;;12.43;;
31638;SDS011;18248;51.522;7.020;2022-08-19T05:33:30;13.60;;;9.50;;
31638;SDS011;18248;51.522;7.020;2022-08-19T05:36:32;22.52;;;10.40;;
31638;SDS011;18248;51.522;7.020;2022-08-19T05:39:37;11.13;;;9.43;;
31638;SDS011;18248;51.522;7.020;2022-08-19T05:42:36;18.50;;;12.43;;
31638;SDS011;18248;51.522;7.020;2022-08-19T05:45:39;17.63;;;10.98;;
31638;SDS011;18248;51.522;7.020;2022-08-19T05:48:38;13.18;;;10.52;;
31638;SDS011;18248;51.522;7.020;2022-08-19T05:51:37;14.80;;;9.45;;
31638;SDS011;18248;51.522;7.020;2022-08-19T05:54:40;15.00;;;9.23;;
31638;SDS011;18248;51.522;7.020;2022-08-19T05:57:41;11.65;;;8.55;;
31638;SDS011;18248;51.522;7.020;2022-08-19T06:00:42;14.68;;;10.45;;
31638;SDS011;18248;51.522;7.020;2022-08-19T06:03:41;13.48;;;10.95;;
31638;SDS011;18248;51.522;7.020;2022-08-19T06:06:40;17.13;;;10.80;;
31638;SDS011;18248;51.522;7.020;2022-08-19T06:09:39;13.75;;;9.70;;
31638;SDS011;18248;51.522;7.020;2022-08-19T06:12:38;15.73;;;11.15;;
31638;SDS011;18248;51.522;7.020;2022-08-19T06:15:37;16.83;;;10.60;;
31638;SDS011;18248;51.522;7.020;2022-08-19T06:18:35;19.13;;;12.63;;
31638;SDS011;18248;51.522;7.020;2022-08-19T06:21:35;18.65;;;11.75;;
31638;SDS011;18248;51.522;7.020;2022-08-19T06:24:35;20.85;;;12.20;;
31638;SDS011;18248;51.522;7.020;2022-08-19T06:27:34;34.53;;;16.30;;
31638;SDS011;18248;51.522;7.020;2022-08-19T06:30:33;24.15;;;15.95;;
31638;SDS011;18248;51.522;7.020;2022-08-19T06:33:35;21.58;;;14.32;;
31638;SDS011;18248;51.522;7.020;2022-08-19T06:36:36;31.63;;;15.57;;
31638;SDS011;18248;51.522;7.020;2022-08-19T06:42:38;28.52;;;16.17;;
31638;SDS011;18248;51.522;7.020;2022-08-19T06:45:37;29.83;;;17.50;;
31638;SDS011;18248;51.522;7.020;2022-08-19T06:48:36;33.17;;;18.63;;
31638;SDS011;18248;51.522;7.020;2022-08-19T06:51:35;29.02;;;16.02;;
31638;SDS011;18248;51.522;7.020;2022-08-19T06:54:33;22.58;;;15.82;;
31638;SDS011;18248;51.522;7.020;2022-08-19T06:57:33;23.92;;;17.05;;
31638;SDS011;18248;51.522;7.020;2022-08-19T07:00:32;36.13;;;19.92;;
31638;SDS011;18248;51.522;7.020;2022-08-19T07:03:32;24.08;;;16.05;;
31638;SDS011;18248;51.522;7.020;2022-08-19T07:06:32;24.17;;;16.88;;
31638;SDS011;18248;51.522;7.020;2022-08-19T07:09:31;30.23;;;16.85;;
31638;SDS011;18248;51.522;7.020;2022-08-19T07:12:30;35.95;;;18.50;;
31638;SDS011;18248;51.522;7.020;2022-08-19T07:15:32;22.63;;;17.42;;
31638;SDS011;18248;51.522;7.020;2022-08-19T07:18:31;33.35;;;16.90;;
31638;SDS011;18248;51.522;7.020;2022-08-19T07:21:31;27.05;;;14.75;;
31638;SDS011;18248;51.522;7.020;2022-08-19T07:24:30;26.95;;;16.10;;
31638;SDS011;18248;51.522;7.020;2022-08-19T07:27:29;22.58;;;14.70;;
31638;SDS011;18248;51.522;7.020;2022-08-19T07:30:28;26.15;;;16.40;;
31638;SDS011;18248;51.522;7.020;2022-08-19T07:33:26;20.60;;;13.68;;
31638;SDS011;18248;51.522;7.020;2022-08-19T07:36:26;23.33;;;16.15;;
31638;SDS011;18248;51.522;7.020;2022-08-19T07:39:31;20.02;;;16.13;;
31638;SDS011;18248;51.522;7.020;2022-08-19T07:42:31;20.85;;;16.25;;
31638;SDS011;18248;51.522;7.020;2022-08-19T07:45:29;25.98;;;15.45;;
31638;SDS011;18248;51.522;7.020;2022-08-19T07:48:30;27.17;;;16.77;;
31638;SDS011;18248;51.522;7.020;2022-08-19T07:51:29;28.15;;;17.25;;
31638;SDS011;18248;51.522;7.020;2022-08-19T07:54:28;31.10;;;17.92;;
31638;SDS011;18248;51.522;7.020;2022-08-19T07:57:29;26.23;;;19.55;;
31638;SDS011;18248;51.522;7.020;2022-08-19T08:00:27;32.25;;;22.38;;
31638;SDS011;18248;51.522;7.020;2022-08-19T08:03:26;31.08;;;19.67;;
31638;SDS011;18248;51.522;7.020;2022-08-19T08:06:44;29.52;;;20.27;;
31638;SDS011;18248;51.522;7.020;2022-08-19T08:10:02;35.50;;;20.50;;
31638;SDS011;18248;51.522;7.020;2022-08-19T08:13:03;27.80;;;21.98;;
31638;SDS011;18248;51.522;7.020;2022-08-19T08:16:03;29.30;;;22.58;;
31638;SDS011;18248;51.522;7.020;2022-08-19T08:19:05;28.75;;;21.42;;
31638;SDS011;18248;51.522;7.020;2022-08-19T08:22:05;28.73;;;22.48;;
31638;SDS011;18248;51.522;7.020;2022-08-19T08:25:08;29.98;;;23.02;;
31638;SDS011;18248;51.522;7.020;2022-08-19T08:28:10;34.35;;;24.02;;
31638;SDS011;18248;51.522;7.020;2022-08-19T08:31:08;19.98;;;16.35;;
31638;SDS011;18248;51.522;7.020;2022-08-19T08:34:09;18.40;;;12.93;;
31638;SDS011;18248;51.522;7.020;2022-08-19T08:37:08;16.20;;;12.57;;
31638;SDS011;18248;51.522;7.020;2022-08-19T08:43:31;20.15;;;15.77;;
31638;SDS011;18248;51.522;7.020;2022-08-19T08:52:46;16.75;;;11.98;;
31638;SDS011;18248;51.522;7.020;2022-08-19T08:55:48;19.98;;;13.50;;
31638;SDS011;18248;51.522;7.020;2022-08-19T08:58:49;26.92;;;17.33;;
31638;SDS011;18248;51.522;7.020;2022-08-19T09:01:56;22.35;;;17.42;;
31638;SDS011;18248;51.522;7.020;2022-08-19T09:04:54;20.42;;;14.55;;
31638;SDS011;18248;51.522;7.020;2022-08-19T09:08:04;21.55;;;13.55;;
31638;SDS011;18248;51.522;7.020;2022-08-19T09:11:11;24.75;;;15.20;;
31638;SDS011;18248;51.522;7.020;2022-08-19T09:17:43;18.55;;;13.00;;
31638;SDS011;18248;51.522;7.020;2022-08-19T09:20:42;20.13;;;12.95;;
31638;SDS011;18248;51.522;7.020;2022-08-19T09:23:44;15.80;;;11.10;;
31638;SDS011;18248;51.522;7.020;2022-08-19T09:26:43;11.45;;;9.60;;
31638;SDS011;18248;51.522;7.020;2022-08-19T09:29:41;24.60;;;11.73;;
31638;SDS011;18248;51.522;7.020;2022-08-19T09:32:40;12.63;;;9.25;;
31638;SDS011;18248;51.522;7.020;2022-08-19T09:35:40;18.45;;;11.57;;
31638;SDS011;18248;51.522;7.020;2022-08-19T09:38:39;16.50;;;10.63;;
31638;SDS011;18248;51.522;7.020;2022-08-19T09:41:39;13.95;;;10.15;;
31638;SDS011;18248;51.522;7.020;2022-08-19T09:44:38;10.25;;;7.80;;
31638;SDS011;18248;51.522;7.020;2022-08-19T09:47:38;13.05;;;9.60;;
31638;SDS011;18248;51.522;7.020;2022-08-19T09:50:37;11.43;;;7.75;;
31638;SDS011;18248;51.522;7.020;2022-08-19T09:53:37;12.18;;;8.05;;
31638;SDS011;18248;51.522;7.020;2022-08-19T09:56:36;13.30;;;8.05;;
31638;SDS011;18248;51.522;7.020;2022-08-19T09:59:34;13.43;;;11.43;;
31638;SDS011;18248;51.522;7.020;2022-08-19T10:02:33;14.10;;;12.32;;
31638;SDS011;18248;51.522;7.020;2022-08-19T10:05:33;15.43;;;11.05;;
31638;SDS011;18248;51.522;7.020;2022-08-19T10:08:48;18.17;;;12.20;;
31638;SDS011;18248;51.522;7.020;2022-08-19T10:11:46;18.55;;;11.27;;
31638;SDS011;18248;51.522;7.020;2022-08-19T10:14:45;20.00;;;12.65;;
31638;SDS011;18248;51.522;7.020;2022-08-19T10:17:44;16.48;;;12.13;;
31638;SDS011;18248;51.522;7.020;2022-08-19T10:20:44;17.50;;;10.63;;
31638;SDS011;18248;51.522;7.020;2022-08-19T10:23:44;18.13;;;14.13;;
31638;SDS011;18248;51.522;7.020;2022-08-19T10:26:44;22.27;;;13.40;;
31638;SDS011;18248;51.522;7.020;2022-08-19T10:29:47;18.08;;;15.05;;
31638;SDS011;18248;51.522;7.020;2022-08-19T10:32:45;21.70;;;15.07;;
31638;SDS011;18248;51.522;7.020;2022-08-19T10:35:44;20.70;;;15.38;;
31638;SDS011;18248;51.522;7.020;2022-08-19T10:38:48;27.77;;;15.57;;
31638;SDS011;18248;51.522;7.020;2022-08-19T10:41:49;26.10;;;16.45;;
31638;SDS011;18248;51.522;7.020;2022-08-19T10:44:48;24.75;;;17.48;;
31638;SDS011;18248;51.522;7.020;2022-08-19T10:47:46;24.45;;;17.65;;
31638;SDS011;18248;51.522;7.020;2022-08-19T10:50:45;28.20;;;19.60;;
31638;SDS011;18248;51.522;7.020;2022-08-19T10:54:02;23.42;;;15.88;;
31638;SDS011;18248;51.522;7.020;2022-08-19T10:57:01;25.23;;;18.80;;
31638;SDS011;18248;51.522;7.020;2022-08-19T10:59:59;22.88;;;16.17;;
31638;SDS011;18248;51.522;7.020;2022-08-19T11:02:58;22.80;;;17.88;;
31638;SDS011;18248;51.522;7.020;2022-08-19T11:05:57;24.38;;;15.00;;
31638;SDS011;18248;51.522;7.020;2022-08-19T11:08:57;20.10;;;16.00;;
31638;SDS011;18248;51.522;7.020;2022-08-19T11:11:57;21.10;;;17.15;;
31638;SDS011;18248;51.522;7.020;2022-08-19T11:14:56;19.27;;;16.08;;
31638;SDS011;18248;51.522;7.020;2022-08-19T11:17:54;19.25;;;15.43;;
31638;SDS011;18248;51.522;7.020;2022-08-19T11:20:53;23.42;;;16.25;;
31638;SDS011;18248;51.522;7.020;2022-08-19T11:23:54;16.70;;;13.68;;
31638;SDS011;18248;51.522;7.020;2022-08-19T11:26:54;20.42;;;14.95;;
31638;SDS011;18248;51.522;7.020;2022-08-19T11:30:03;25.05;;;15.20;;
31638;SDS011;18248;51.522;7.020;2022-08-19T11:33:02;23.40;;;15.30;;
31638;SDS011;18248;51.522;7.020;2022-08-19T11:36:01;22.40;;;14.50;;
31638;SDS011;18248;51.522;7.020;2022-08-19T11:39:01;19.85;;;12.77;;
31638;SDS011;18248;51.522;7.020;2022-08-19T11:42:01;15.88;;;13.68;;
31638;SDS011;18248;51.522;7.020;2022-08-19T11:45:00;19.92;;;12.32;;
31638;SDS011;18248;51.522;7.020;2022-08-19T11:48:01;19.73;;;13.75;;
31638;SDS011;18248;51.522;7.020;2022-08-19T11:51:06;18.75;;;13.32;;
31638;SDS011;18248;51.522;7.020;2022-08-19T11:54:07;22.70;;;14.43;;
31638;SDS011;18248;51.522;7.020;2022-08-19T11:57:06;22.27;;;13.18;;
31638;SDS011;18248;51.522;7.020;2022-08-19T12:00:04;15.98;;;10.13;;
31638;SDS011;18248;51.522;7.020;2022-08-19T12:03:05;18.25;;;10.88;;
31638;SDS011;18248;51.522;7.020;2022-08-19T12:06:07;16.88;;;9.77;;
31638;SDS011;18248;51.522;7.020;2022-08-19T12:09:11;14.15;;;10.95;;
31638;SDS011;18248;51.522;7.020;2022-08-19T12:12:12;18.00;;;9.50;;
31638;SDS011;18248;51.522;7.020;2022-08-19T12:15:11;13.43;;;8.77;;
31638;SDS011;18248;51.522;7.020;2022-08-19T12:18:12;10.75;;;7.63;;
31638;SDS011;18248;51.522;7.020;2022-08-19T12:21:12;16.35;;;9.45;;
31638;SDS011;18248;51.522;7.020;2022-08-19T12:24:13;13.68;;;9.15;;
31638;SDS011;18248;51.522;7.020;2022-08-19T12:27:11;16.08;;;8.80;;
31638;SDS011;18248;51.522;7.020;2022-08-19T12:30:11;16.45;;;8.75;;
31638;SDS011;18248;51.522;7.020;2022-08-19T12:33:10;13.25;;;7.00;;
31638;SDS011;18248;51.522;7.020;2022-08-19T12:36:11;13.38;;;5.95;;
31638;SDS011;18248;51.522;7.020;2022-08-19T12:39:11;10.38;;;7.30;;
31638;SDS011;18248;51.522;7.020;2022-08-19T12:42:10;11.20;;;6.43;;
31638;SDS011;18248;51.522;7.020;2022-08-19T12:45:10;8.07;;;5.70;;
31638;SDS011;18248;51.522;7.020;2022-08-19T12:48:11;11.25;;;6.32;;
31638;SDS011;18248;51.522;7.020;2022-08-19T12:51:11;15.25;;;6.60;;
31638;SDS011;18248;51.522;7.020;2022-08-19T12:57:12;8.15;;;5.60;;
31638;SDS011;18248;51.522;7.020;2022-08-19T13:00:12;9.18;;;5.75;;
31638;SDS011;18248;51.522;7.020;2022-08-19T13:03:13;12.65;;;5.97;;
31638;SDS011;18248;51.522;7.020;2022-08-19T13:06:12;8.02;;;5.88;;
31638;SDS011;18248;51.522;7.020;2022-08-19T13:09:10;12.98;;;5.43;;
31638;SDS011;18248;51.522;7.020;2022-08-19T13:12:09;14.10;;;5.10;;
31638;SDS011;18248;51.522;7.020;2022-08-19T13:15:10;8.32;;;4.47;;
31638;SDS011;18248;51.522;7.020;2022-08-19T13:18:09;5.95;;;4.15;;
31638;SDS011;18248;51.522;7.020;2022-08-19T13:21:09;8.70;;;4.50;;
31638;SDS011;18248;51.522;7.020;2022-08-19T13:24:11;6.85;;;4.32;;
31638;SDS011;18248;51.522;7.020;2022-08-19T13:27:11;10.13;;;4.97;;
31638;SDS011;18248;51.522;7.020;2022-08-19T13:30:10;10.02;;;4.70;;
31638;SDS011;18248;51.522;7.020;2022-08-19T13:33:28;7.20;;;4.32;;
31638;SDS011;18248;51.522;7.020;2022-08-19T13:36:27;6.78;;;3.95;;
31638;SDS011;18248;51.522;7.020;2022-08-19T13:39:28;5.68;;;3.15;;
31638;SDS011;18248;51.522;7.020;2022-08-19T13:42:27;6.32;;;3.72;;
31638;SDS011;18248;51.522;7.020;2022-08-19T13:45:28;7.28;;;3.58;;
31638;SDS011;18248;51.522;7.020;2022-08-19T13:48:28;4.95;;;3.13;;
31638;SDS011;18248;51.522;7.020;2022-08-19T13:51:26;8.85;;;3.75;;
31638;SDS011;18248;51.522;7.020;2022-08-19T13:54:25;5.93;;;3.38;;
31638;SDS011;18248;51.522;7.020;2022-08-19T13:57:24;6.88;;;2.97;;
31638;SDS011;18248;51.522;7.020;2022-08-19T14:00:24;6.35;;;2.85;;
31638;SDS011;18248;51.522;7.020;2022-08-19T14:03:24;7.03;;;3.22;;
31638;SDS011;18248;51.522;7.020;2022-08-19T14:06:23;5.55;;;3.33;;
31638;SDS011;18248;51.522;7.020;2022-08-19T14:09:23;6.88;;;3.22;;
31638;SDS011;18248;51.522;7.020;2022-08-19T14:12:22;10.68;;;3.10;;
31638;SDS011;18248;51.522;7.020;2022-08-19T14:15:21;10.98;;;3.17;;
31638;SDS011;18248;51.522;7.020;2022-08-19T14:18:21;8.68;;;3.30;;
31638;SDS011;18248;51.522;7.020;2022-08-19T14:21:21;5.47;;;3.22;;
31638;SDS011;18248;51.522;7.020;2022-08-19T14:24:21;5.30;;;3.33;;
31638;SDS011;18248;51.522;7.020;2022-08-19T14:27:20;5.57;;;3.35;;
31638;SDS011;18248;51.522;7.020;2022-08-19T14:30:21;12.60;;;4.30;;
31638;SDS011;18248;51.522;7.020;2022-08-19T14:33:23;7.07;;;3.95;;
31638;SDS011;18248;51.522;7.020;2022-08-19T14:36:21;7.85;;;4.38;;
31638;SDS011;18248;51.522;7.020;2022-08-19T14:39:20;10.95;;;3.95;;
31638;SDS011;18248;51.522;7.020;2022-08-19T14:42:19;9.00;;;4.30;;
31638;SDS011;18248;51.522;7.020;2022-08-19T14:45:17;8.18;;;4.38;;
31638;SDS011;18248;51.522;7.020;2022-08-19T14:48:16;7.68;;;3.78;;
31638;SDS011;18248;51.522;7.020;2022-08-19T14:51:16;5.80;;;5.18;;
31638;SDS011;18248;51.522;7.020;2022-08-19T14:54:16;14.32;;;7.25;;
31638;SDS011;18248;51.522;7.020;2022-08-19T14:57:15;8.25;;;5.30;;
31638;SDS011;18248;51.522;7.020;2022-08-19T15:00:14;6.32;;;5.15;;
31638;SDS011;18248;51.522;7.020;2022-08-19T15:03:13;11.93;;;6.82;;
31638;SDS011;18248;51.522;7.020;2022-08-19T15:06:11;14.55;;;6.97;;
31638;SDS011;18248;51.522;7.020;2022-08-19T15:09:10;10.40;;;6.00;;
31638;SDS011;18248;51.522;7.020;2022-08-19T15:12:08;8.43;;;5.80;;
31638;SDS011;18248;51.522;7.020;2022-08-19T15:15:09;13.38;;;6.13;;
31638;SDS011;18248;51.522;7.020;2022-08-19T15:18:10;11.37;;;6.07;;
31638;SDS011;18248;51.522;7.020;2022-08-19T15:21:10;11.45;;;5.50;;
31638;SDS011;18248;51.522;7.020;2022-08-19T15:24:10;9.45;;;5.57;;
31638;SDS011;18248;51.522;7.020;2022-08-19T15:27:09;6.93;;;4.93;;
31638;SDS011;18248;51.522;7.020;2022-08-19T15:30:08;8.43;;;4.80;;
31638;SDS011;18248;51.522;7.020;2022-08-19T15:33:09;7.65;;;4.22;;
31638;SDS011;18248;51.522;7.020;2022-08-19T15:36:12;9.57;;;5.30;;
31638;SDS011;18248;51.522;7.020;2022-08-19T15:39:10;14.98;;;4.80;;
31638;SDS011;18248;51.522;7.020;2022-08-19T15:42:09;12.55;;;4.68;;
31638;SDS011;18248;51.522;7.020;2022-08-19T15:45:08;12.90;;;7.40;;
31638;SDS011;18248;51.522;7.020;2022-08-19T15:48:08;10.50;;;6.28;;
31638;SDS011;18248;51.522;7.020;2022-08-19T15:51:07;12.50;;;6.82;;
31638;SDS011;18248;51.522;7.020;2022-08-19T15:54:08;9.38;;;6.30;;
31638;SDS011;18248;51.522;7.020;2022-08-19T16:00:20;10.60;;;6.35;;
31638;SDS011;18248;51.522;7.020;2022-08-19T16:03:37;12.75;;;6.35;;
31638;SDS011;18248;51.522;7.020;2022-08-19T16:06:55;9.73;;;6.53;;
31638;SDS011;18248;51.522;7.020;2022-08-19T16:09:55;11.50;;;8.27;;
31638;SDS011;18248;51.522;7.020;2022-08-19T16:12:55;14.80;;;8.60;;
31638;SDS011;18248;51.522;7.020;2022-08-19T16:15:54;9.13;;;6.72;;
31638;SDS011;18248;51.522;7.020;2022-08-19T16:18:55;13.40;;;8.23;;
31638;SDS011;18248;51.522;7.020;2022-08-19T16:21:55;11.15;;;7.07;;
31638;SDS011;18248;51.522;7.020;2022-08-19T16:24:54;8.75;;;6.68;;
31638;SDS011;18248;51.522;7.020;2022-08-19T16:27:52;14.40;;;7.20;;
31638;SDS011;18248;51.522;7.020;2022-08-19T16:30:52;16.27;;;9.15;;
31638;SDS011;18248;51.522;7.020;2022-08-19T16:33:51;18.77;;;9.70;;
31638;SDS011;18248;51.522;7.020;2022-08-19T16:36:50;13.57;;;9.05;;
31638;SDS011;18248;51.522;7.020;2022-08-19T16:39:49;16.00;;;8.75;;
31638;SDS011;18248;51.522;7.020;2022-08-19T16:42:48;16.85;;;8.90;;
31638;SDS011;18248;51.522;7.020;2022-08-19T16:45:50;10.43;;;7.93;;
31638;SDS011;18248;51.522;7.020;2022-08-19T16:48:50;10.43;;;7.93;;
31638;SDS011;18248;51.522;7.020;2022-08-19T16:51:48;14.93;;;7.80;;
31638;SDS011;18248;51.522;7.020;2022-08-19T16:54:47;13.45;;;8.15;;
31638;SDS011;18248;51.522;7.020;2022-08-19T16:57:47;14.50;;;8.30;;
31638;SDS011;18248;51.522;7.020;2022-08-19T17:00:46;11.32;;;8.25;;
31638;SDS011;18248;51.522;7.020;2022-08-19T17:03:46;17.25;;;9.85;;
31638;SDS011;18248;51.522;7.020;2022-08-19T17:06:47;11.50;;;7.95;;
31638;SDS011;18248;51.522;7.020;2022-08-19T17:09:45;16.17;;;9.82;;
31638;SDS011;18248;51.522;7.020;2022-08-19T17:12:44;18.08;;;8.50;;
31638;SDS011;18248;51.522;7.020;2022-08-19T17:15:43;15.82;;;8.38;;
31638;SDS011;18248;51.522;7.020;2022-08-19T17:18:41;17.02;;;8.90;;
31638;SDS011;18248;51.522;7.020;2022-08-19T17:21:41;15.95;;;9.45;;
31638;SDS011;18248;51.522;7.020;2022-08-19T17:24:39;12.55;;;8.00;;
31638;SDS011;18248;51.522;7.020;2022-08-19T17:27:39;14.45;;;7.88;;
31638;SDS011;18248;51.522;7.020;2022-08-19T17:30:38;10.18;;;7.25;;
31638;SDS011;18248;51.522;7.020;2022-08-19T17:33:38;12.77;;;7.60;;
31638;SDS011;18248;51.522;7.020;2022-08-19T17:36:36;12.30;;;8.45;;
31638;SDS011;18248;51.522;7.020;2022-08-19T17:39:35;13.45;;;7.95;;
31638;SDS011;18248;51.522;7.020;2022-08-19T17:42:35;11.98;;;6.95;;
31638;SDS011;18248;51.522;7.020;2022-08-19T17:45:38;15.23;;;7.35;;
31638;SDS011;18248;51.522;7.020;2022-08-19T17:48:39;16.23;;;7.60;;
31638;SDS011;18248;51.522;7.020;2022-08-19T17:51:42;11.15;;;6.00;;
31638;SDS011;18248;51.522;7.020;2022-08-19T17:54:42;13.00;;;6.38;;
31638;SDS011;18248;51.522;7.020;2022-08-19T17:57:41;13.77;;;6.25;;
31638;SDS011;18248;51.522;7.020;2022-08-19T18:00:40;11.90;;;5.80;;
31638;SDS011;18248;51.522;7.020;2022-08-19T18:03:39;12.30;;;5.72;;
31638;SDS011;18248;51.522;7.020;2022-08-19T18:06:38;9.68;;;5.75;;
31638;SDS011;18248;51.522;7.020;2022-08-19T18:09:39;11.52;;;6.18;;
31638;SDS011;18248;51.522;7.020;2022-08-19T18:12:38;10.85;;;6.10;;